West Sand Lake, New York
Current Conditions -  °F | °C
As of 9:51 PM on Sunday 28 Dec 2014 (Local Time) from KALB Reporting Station
Overcast Overcast  
Wind Chill: 30°   Ceiling: 4500
Heat Index: 36°   Visibility: 10mi
Dew Point: 25°   Wind: 8mph
Humidity: 64%   Direction: 300°WNW
Pressure: 30.05"   Gusts: NA
Location:  42.64°N, 73.61°W
Report Text: KALB 290251Z 30007KT 10SM FEW030 BKN045 OVC100 02/M04 A3005 RMK AO2 SLP179 T00221039 51013 $
Loading
Personal Weather Stations






























Interactive Weather Map New forecast layout! Learn more

10-Day Weather Forecast

Advertisements
Track Severe Weather on mobile